createdAt,value
2017-11-07T00:02:03.701Z,8.13
2017-11-07T00:04:31.256Z,8.50
2017-11-07T00:06:58.754Z,9.03
2017-11-07T00:09:26.302Z,8.43
2017-11-07T00:11:54.567Z,8.57
2017-11-07T00:14:22.071Z,8.80
2017-11-07T00:16:49.692Z,7.13
2017-11-07T00:19:18.006Z,8.80
2017-11-07T00:21:45.560Z,8.20
2017-11-07T00:24:13.139Z,9.00
2017-11-07T00:26:40.806Z,7.27
2017-11-07T00:29:08.320Z,9.70
2017-11-07T00:31:35.964Z,9.40
2017-11-07T00:34:03.652Z,9.00
2017-11-07T00:36:31.153Z,9.47
2017-11-07T00:38:58.699Z,10.90
2017-11-07T00:41:26.280Z,10.10
2017-11-07T00:43:53.840Z,10.00
2017-11-07T00:46:21.360Z,11.30
2017-11-07T00:48:48.957Z,9.53
2017-11-07T00:51:16.646Z,10.40
2017-11-07T00:53:44.163Z,8.50
2017-11-07T00:56:11.684Z,9.87
2017-11-07T00:58:40.223Z,8.53
2017-11-07T01:01:07.815Z,7.90
2017-11-07T01:03:35.360Z,9.60
2017-11-07T01:06:03.053Z,8.40
2017-11-07T01:08:30.560Z,9.70
2017-11-07T01:10:58.068Z,10.50
2017-11-07T01:13:25.719Z,9.87
2017-11-07T01:15:54.040Z,9.33
2017-11-07T01:18:21.555Z,8.33
2017-11-07T01:20:49.108Z,9.17
2017-11-07T01:23:17.375Z,8.63
2017-11-07T01:25:45.080Z,9.40
2017-11-07T01:28:12.615Z,8.40
2017-11-07T01:30:40.133Z,9.03
2017-11-07T01:33:07.792Z,9.73
2017-11-07T01:35:35.378Z,9.10
2017-11-07T01:38:02.976Z,7.77
2017-11-07T01:40:31.356Z,9.43
2017-11-07T01:42:58.939Z,9.20
2017-11-07T01:45:26.507Z,8.50
2017-11-07T01:47:54.511Z,9.47
2017-11-07T01:50:22.016Z,9.10
2017-11-07T01:52:49.561Z,9.13
2017-11-07T01:55:17.113Z,10.70
2017-11-07T01:57:44.962Z,11.30
2017-11-07T02:00:12.660Z,10.73
2017-11-07T02:02:40.200Z,8.83
2017-11-07T02:05:08.479Z,9.53
2017-11-07T02:07:36.798Z,10.10
2017-11-07T02:10:04.907Z,10.17
2017-11-07T02:12:32.421Z,10.50
2017-11-07T02:15:00.329Z,9.37
2017-11-07T02:17:28.649Z,10.10
2017-11-07T02:19:56.164Z,9.70
2017-11-07T02:22:23.726Z,9.33
2017-11-07T02:24:51.255Z,10.00
2017-11-07T02:27:18.905Z,12.60
2017-11-07T02:29:46.507Z,10.60
2017-11-07T02:32:14.079Z,10.90
2017-11-07T02:34:41.653Z,10.80
2017-11-07T02:37:09.200Z,9.67
2017-11-07T02:39:36.849Z,10.00
2017-11-07T02:42:04.447Z,11.10
2017-11-07T02:44:32.120Z,10.77
2017-11-07T02:46:59.648Z,12.97
2017-11-07T02:49:27.208Z,11.17
2017-11-07T02:51:55.588Z,10.70
2017-11-07T02:54:23.240Z,10.37
2017-11-07T02:56:50.855Z,11.47
2017-11-07T02:59:18.441Z,12.07
2017-11-07T03:01:45.959Z,12.03
2017-11-07T03:04:13.483Z,12.43
2017-11-07T03:06:41.047Z,10.47
2017-11-07T03:09:09.327Z,12.50
2017-11-07T03:11:37.602Z,11.47
2017-11-07T03:14:05.938Z,12.17
2017-11-07T03:16:33.447Z,12.40
2017-11-07T03:19:01.440Z,10.97
2017-11-07T03:21:28.971Z,12.50
2017-11-07T03:23:56.500Z,12.87
2017-11-07T03:26:24.106Z,12.37
2017-11-07T03:28:51.614Z,11.63
2017-11-07T03:31:19.127Z,12.20
2017-11-07T03:33:46.684Z,13.70
2017-11-07T03:36:14.214Z,12.37
2017-11-07T03:38:42.571Z,12.13
2017-11-07T03:41:10.134Z,13.67
2017-11-07T03:43:37.630Z,10.67
2017-11-07T03:46:05.381Z,11.83
2017-11-07T03:48:33.078Z,11.30
2017-11-07T03:51:00.692Z,12.57
2017-11-07T03:53:28.199Z,12.57
2017-11-07T03:55:55.754Z,12.93
2017-11-07T03:58:23.387Z,13.93
2017-11-07T04:00:51.690Z,12.80
2017-11-07T04:03:19.301Z,13.63
2017-11-07T04:05:46.803Z,11.67
2017-11-07T04:08:14.306Z,13.07
2017-11-07T04:10:41.911Z,10.60
2017-11-07T04:13:10.215Z,13.10
2017-11-07T04:15:37.725Z,13.23
2017-11-07T04:18:05.280Z,14.10
2017-11-07T04:20:32.895Z,12.00
2017-11-07T04:23:00.428Z,13.33
2017-11-07T04:25:28.407Z,13.37
2017-11-07T04:27:55.919Z,11.90
2017-11-07T04:30:23.602Z,12.80
2017-11-07T04:32:51.919Z,12.07
2017-11-07T04:35:19.820Z,13.37
2017-11-07T04:37:47.330Z,11.87
2017-11-07T04:40:15.351Z,12.27
2017-11-07T04:42:42.982Z,13.67
2017-11-07T04:45:10.491Z,11.67
2017-11-07T04:47:38.038Z,13.17
2017-11-07T04:50:05.791Z,12.00
2017-11-07T04:52:33.323Z,14.10
2017-11-07T04:55:00.899Z,13.30
2017-11-07T04:57:28.412Z,14.87
2017-11-07T04:59:55.987Z,12.07
2017-11-07T05:02:23.547Z,13.90
2017-11-07T05:04:51.322Z,14.40
2017-11-07T05:07:18.891Z,15.00
2017-11-07T05:09:46.455Z,14.53
2017-11-07T05:12:14.335Z,13.40
2017-11-07T05:14:41.892Z,13.00
2017-11-07T05:17:09.426Z,15.07
2017-11-07T05:19:37.127Z,14.47
2017-11-07T05:22:05.175Z,15.47
2017-11-07T05:24:32.799Z,17.23
2017-11-07T05:27:00.521Z,15.70
2017-11-07T05:29:28.075Z,14.47
2017-11-07T05:31:55.609Z,16.07
2017-11-07T05:34:23.138Z,17.57
2017-11-07T05:36:50.716Z,18.70
2017-11-07T05:39:18.223Z,15.93
2017-11-07T05:41:45.739Z,16.70
2017-11-07T05:44:13.554Z,15.47
2017-11-07T05:46:41.073Z,16.47
2017-11-07T05:49:08.588Z,15.00
2017-11-07T05:51:37.015Z,15.50
2017-11-07T05:54:04.522Z,16.87
2017-11-07T05:56:32.802Z,17.30
2017-11-07T05:59:01.130Z,15.83
2017-11-07T06:01:28.630Z,16.30
2017-11-07T06:03:56.148Z,16.80
2017-11-07T06:06:23.688Z,17.67
2017-11-07T06:08:51.211Z,17.00
2017-11-07T06:11:18.742Z,16.77
2017-11-07T06:13:46.406Z,16.97
2017-11-07T06:16:13.955Z,17.00
2017-11-07T06:18:41.573Z,18.23
2017-11-07T06:21:09.075Z,16.40
2017-11-07T06:23:36.628Z,17.93
2017-11-07T06:26:04.382Z,19.50
2017-11-07T06:28:31.901Z,16.30
2017-11-07T06:30:59.416Z,19.13
2017-11-07T06:33:26.995Z,17.67
2017-11-07T06:35:54.538Z,16.90
2017-11-07T06:38:22.207Z,17.47
2017-11-07T06:40:49.827Z,19.23
2017-11-07T06:43:17.361Z,17.90
2017-11-07T06:45:44.862Z,20.60
2017-11-07T06:48:12.487Z,20.17
2017-11-07T06:50:40.846Z,20.97
2017-11-07T06:53:08.374Z,21.60
2017-11-07T06:55:36.528Z,19.70
2017-11-07T06:58:04.347Z,21.97
2017-11-07T07:00:32.622Z,20.80
2017-11-07T07:03:01.047Z,21.80
2017-11-07T07:05:28.559Z,21.13
2017-11-07T07:07:56.839Z,21.60
2017-11-07T07:10:25.160Z,19.07
2017-11-07T07:12:52.669Z,24.57
2017-11-07T07:15:20.316Z,22.80
2017-11-07T07:17:47.876Z,24.07
2017-11-07T07:20:15.399Z,22.50
2017-11-07T07:22:42.927Z,24.13
2017-11-07T07:25:10.547Z,17.70
2017-11-07T07:27:38.332Z,24.80
2017-11-07T07:30:05.943Z,26.20
2017-11-07T07:32:33.498Z,27.07
2017-11-07T07:35:01.156Z,26.57
2017-11-07T07:37:28.809Z,26.30
2017-11-07T07:39:56.460Z,27.87
2017-11-07T07:42:24.039Z,33.23
2017-11-07T07:44:51.599Z,28.80
2017-11-07T07:47:19.183Z,30.87
2017-11-07T07:49:46.744Z,29.03
2017-11-07T07:52:14.390Z,30.17
2017-11-07T07:54:42.311Z,32.50
2017-11-07T07:57:09.816Z,30.33
2017-11-07T07:59:37.890Z,30.83
2017-11-07T08:02:05.457Z,32.40
2017-11-07T08:04:32.976Z,31.73
2017-11-07T08:07:00.549Z,31.47
2017-11-07T08:09:28.158Z,31.80
2017-11-07T08:11:55.755Z,34.90
2017-11-07T08:14:23.306Z,32.27
2017-11-07T08:16:51.665Z,31.87
2017-11-07T08:19:19.175Z,33.57
2017-11-07T08:21:46.714Z,30.60
2017-11-07T08:24:15.037Z,32.77
2017-11-07T08:26:42.609Z,31.63
2017-11-07T08:29:10.607Z,29.20
2017-11-07T08:31:38.185Z,31.50
2017-11-07T08:34:05.696Z,31.27
2017-11-07T08:36:33.214Z,29.50
2017-11-07T08:39:01.240Z,30.10
2017-11-07T08:41:28.767Z,31.30
2017-11-07T08:43:56.280Z,31.23
2017-11-07T08:46:25.282Z,33.73
2017-11-07T08:48:52.805Z,30.90
2017-11-07T08:51:20.550Z,29.90
2017-11-07T08:53:48.150Z,31.23
2017-11-07T08:56:15.708Z,31.57
2017-11-07T08:58:43.437Z,33.90
2017-11-07T09:01:11.036Z,29.47
2017-11-07T09:03:38.576Z,29.43
2017-11-07T09:06:06.137Z,27.47
2017-11-07T09:08:33.764Z,29.60
2017-11-07T09:11:01.280Z,33.40
2017-11-07T09:13:28.833Z,26.60
2017-11-07T09:15:57.169Z,26.17
2017-11-07T09:18:24.731Z,28.90
2017-11-07T09:20:52.244Z,29.60
2017-11-07T09:23:20.723Z,28.17
2017-11-07T09:25:48.247Z,29.80
2017-11-07T09:28:15.764Z,28.00
2017-11-07T09:30:43.350Z,26.80
2017-11-07T09:33:10.871Z,25.43
2017-11-07T09:35:38.490Z,24.23
2017-11-07T09:38:06.315Z,25.47
2017-11-07T09:40:33.933Z,26.00
2017-11-07T09:43:02.313Z,24.33
2017-11-07T09:45:29.970Z,26.17
2017-11-07T09:47:57.495Z,25.83
2017-11-07T09:50:25.511Z,24.77
2017-11-07T09:52:53.048Z,26.77
2017-11-07T09:55:20.647Z,25.90
2017-11-07T09:57:48.238Z,23.20
2017-11-07T10:00:15.936Z,29.07
2017-11-07T10:02:43.501Z,22.53
2017-11-07T10:05:11.003Z,24.00
2017-11-07T10:07:38.765Z,25.00
2017-11-07T10:10:06.359Z,22.00
2017-11-07T10:12:33.992Z,20.67
2017-11-07T10:15:01.547Z,22.30
2017-11-07T10:17:29.055Z,23.17
2017-11-07T10:19:56.556Z,23.80
2017-11-07T10:22:24.275Z,26.87
2017-11-07T10:24:51.783Z,22.87
2017-11-07T10:27:19.375Z,22.20
2017-11-07T10:29:47.005Z,20.43
2017-11-07T10:32:14.532Z,20.50
2017-11-07T10:34:42.097Z,18.53
2017-11-07T10:37:10.419Z,19.50
2017-11-07T10:39:38.136Z,18.87
2017-11-07T10:42:05.772Z,19.33
2017-11-07T10:44:33.336Z,19.53
2017-11-07T10:47:00.846Z,23.50
2017-11-07T10:49:28.355Z,18.57
2017-11-07T10:51:56.015Z,19.30
2017-11-07T10:54:23.520Z,18.50
2017-11-07T10:56:51.050Z,18.17
2017-11-07T10:59:19.387Z,16.73
2017-11-07T11:01:46.947Z,14.93
2017-11-07T11:04:14.650Z,18.93
2017-11-07T11:06:43.078Z,19.43
2017-11-07T11:09:10.890Z,20.30
2017-11-07T11:11:38.400Z,19.43
2017-11-07T11:14:05.979Z,18.40
2017-11-07T11:16:33.639Z,18.80
2017-11-07T11:19:01.160Z,19.03
2017-11-07T11:21:28.980Z,19.07
2017-11-07T11:23:56.487Z,17.87
2017-11-07T11:26:24.043Z,17.73
2017-11-07T11:28:51.836Z,17.77
2017-11-07T11:31:19.374Z,20.30
2017-11-07T11:33:46.927Z,17.33
2017-11-07T11:36:14.530Z,18.17
2017-11-07T11:38:42.083Z,18.80
2017-11-07T11:41:09.643Z,19.50
2017-11-07T11:43:37.360Z,19.03
2017-11-07T11:46:04.878Z,19.77
2017-11-07T11:48:32.636Z,18.87
2017-11-07T11:51:00.147Z,20.77
2017-11-07T11:53:27.748Z,17.83
2017-11-07T11:55:55.367Z,20.37
2017-11-07T11:58:22.876Z,18.37
2017-11-07T12:00:50.402Z,21.00
2017-11-07T12:03:18.612Z,19.70
2017-11-07T12:05:46.222Z,20.30
2017-11-07T12:08:13.731Z,20.10
2017-11-07T12:10:41.394Z,20.47
2017-11-07T12:13:08.943Z,18.40
2017-11-07T12:15:36.458Z,18.37
2017-11-07T12:18:04.787Z,21.03
2017-11-07T12:20:32.420Z,20.07
2017-11-07T12:22:59.919Z,19.43
2017-11-07T12:25:27.808Z,18.07
2017-11-07T12:27:55.323Z,19.97
2017-11-07T12:30:22.827Z,19.50
2017-11-07T12:32:51.349Z,18.70
2017-11-07T12:35:18.913Z,17.63
2017-11-07T12:37:46.430Z,19.43
2017-11-07T12:40:14.008Z,17.43
2017-11-07T12:42:41.643Z,18.10
2017-11-07T12:45:09.161Z,19.33
2017-11-07T12:47:36.951Z,19.50
2017-11-07T12:50:16.406Z,19.47
2017-11-07T12:52:44.133Z,18.33
2017-11-07T12:55:11.703Z,18.77
2017-11-07T12:57:40.379Z,17.60
2017-11-07T13:00:08.149Z,18.37
2017-11-07T13:02:35.668Z,19.27
2017-11-07T13:05:03.265Z,17.40
2017-11-07T13:07:30.964Z,19.70
2017-11-07T13:09:58.464Z,19.07
2017-11-07T13:12:25.972Z,17.70
2017-11-07T13:14:53.722Z,18.90
2017-11-07T13:17:21.438Z,27.43
2017-11-07T13:19:49.044Z,20.57
2017-11-07T13:22:16.628Z,23.17
2017-11-07T13:24:45.191Z,21.30
2017-11-07T13:27:12.797Z,18.23
2017-11-07T13:29:40.379Z,18.77
2017-11-07T13:32:07.901Z,19.70
2017-11-07T13:34:36.243Z,19.30
2017-11-07T13:37:04.136Z,15.90
2017-11-07T13:39:31.650Z,18.37
2017-11-07T13:41:59.243Z,18.97
2017-11-07T13:44:26.873Z,16.60
2017-11-07T13:46:54.370Z,18.20
2017-11-07T13:49:21.896Z,17.00
2017-11-07T13:51:49.485Z,18.90
2017-11-07T13:54:17.095Z,17.63
2017-11-07T13:56:44.602Z,21.17
2017-11-07T13:59:12.273Z,16.93
2017-11-07T14:01:39.818Z,16.33
2017-11-07T14:04:07.336Z,18.83
2017-11-07T14:06:35.699Z,17.60
2017-11-07T14:09:03.288Z,18.93
2017-11-07T14:11:30.983Z,17.83
2017-11-07T14:13:58.503Z,17.73
2017-11-07T14:16:26.087Z,17.93
2017-11-07T14:18:53.595Z,17.67
2017-11-07T14:21:21.248Z,17.10
2017-11-07T14:23:48.799Z,18.30
2017-11-07T14:26:17.119Z,18.57
2017-11-07T14:28:44.652Z,18.07
2017-11-07T14:31:12.247Z,18.67
2017-11-07T14:33:39.751Z,17.57
2017-11-07T14:36:07.364Z,18.60
2017-11-07T14:38:35.160Z,21.40
2017-11-07T14:41:02.918Z,17.63
2017-11-07T14:43:30.518Z,21.00
2017-11-07T14:45:58.866Z,21.00
2017-11-07T14:48:27.117Z,21.40
2017-11-07T14:50:54.626Z,21.60
2017-11-07T14:53:22.195Z,20.87
2017-11-07T14:55:50.707Z,21.30
2017-11-07T14:58:18.219Z,19.93
2017-11-07T15:00:45.808Z,22.40
2017-11-07T15:03:13.272Z,22.07
2017-11-07T15:05:40.782Z,20.03
2017-11-07T15:08:08.501Z,21.10
2017-11-07T15:10:36.047Z,21.73
2017-11-07T15:13:03.687Z,20.93
2017-11-07T15:15:32.102Z,20.47
2017-11-07T15:17:59.965Z,22.40
2017-11-07T15:20:27.755Z,18.10
2017-11-07T15:22:55.343Z,21.40
2017-11-07T15:25:22.871Z,19.97
2017-11-07T15:27:50.388Z,21.53
2017-11-07T15:30:17.975Z,21.40
2017-11-07T15:32:45.500Z,21.10
2017-11-07T15:35:13.119Z,23.13
2017-11-07T15:37:40.789Z,21.80
2017-11-07T15:40:08.392Z,22.60
2017-11-07T15:42:36.679Z,22.47
2017-11-07T15:45:04.472Z,23.10
2017-11-07T15:47:32.002Z,20.87
2017-11-07T15:49:59.559Z,21.03
2017-11-07T15:52:28.161Z,22.33
2017-11-07T15:54:55.720Z,25.47
2017-11-07T15:57:23.381Z,23.50
2017-11-07T15:59:51.108Z,23.70
2017-11-07T16:02:18.683Z,23.27
2017-11-07T16:04:46.447Z,24.93
2017-11-07T16:07:14.041Z,24.17
2017-11-07T16:09:41.806Z,23.87
2017-11-07T16:12:09.322Z,24.30
2017-11-07T16:14:36.883Z,25.80
2017-11-07T16:17:05.159Z,23.93
2017-11-07T16:19:33.426Z,24.10
2017-11-07T16:22:01.752Z,23.03
2017-11-07T16:24:29.304Z,23.60
2017-11-07T16:26:56.870Z,24.70
2017-11-07T16:29:24.407Z,24.90
2017-11-07T16:31:52.685Z,25.23
2017-11-07T16:34:20.199Z,24.83
2017-11-07T16:36:47.743Z,29.30
2017-11-07T16:39:15.655Z,26.63
2017-11-07T16:41:43.344Z,28.50
2017-11-07T16:44:10.883Z,28.10
2017-11-07T16:46:39.151Z,27.77
2017-11-07T16:49:07.446Z,29.17
2017-11-07T16:51:35.570Z,30.87
2017-11-07T16:54:03.125Z,27.90
2017-11-07T16:56:30.691Z,28.97
2017-11-07T16:58:58.590Z,28.17
2017-11-07T17:01:26.906Z,29.37
2017-11-07T17:03:54.416Z,28.53
2017-11-07T17:06:22.010Z,29.80
2017-11-07T17:08:49.680Z,32.70
2017-11-07T17:11:17.254Z,29.70
2017-11-07T17:13:44.912Z,30.30
2017-11-07T17:16:12.455Z,26.57
2017-11-07T17:18:40.138Z,29.83
2017-11-07T17:21:07.862Z,30.33
2017-11-07T17:23:35.396Z,30.10
2017-11-07T17:26:02.906Z,29.90
2017-11-07T17:28:30.504Z,27.67
2017-11-07T17:30:58.034Z,29.27
2017-11-07T17:33:25.543Z,31.93
2017-11-07T17:35:54.068Z,32.00
2017-11-07T17:38:21.579Z,29.33
2017-11-07T17:40:49.152Z,26.27
2017-11-07T17:43:17.230Z,29.70
2017-11-07T17:45:44.748Z,33.23
2017-11-07T17:48:12.272Z,26.93
2017-11-07T17:50:39.911Z,28.60
2017-11-07T17:53:07.479Z,32.37
2017-11-07T17:55:35.072Z,29.83
2017-11-07T17:58:03.515Z,29.47
2017-11-07T18:00:31.138Z,32.33
2017-11-07T18:02:58.773Z,33.47
2017-11-07T18:05:26.358Z,31.40
2017-11-07T18:07:53.918Z,31.00
2017-11-07T18:10:21.460Z,30.87
2017-11-07T18:12:49.077Z,31.50
2017-11-07T18:15:17.091Z,29.33
2017-11-07T18:17:44.638Z,32.63
2017-11-07T18:20:12.430Z,30.40
2017-11-07T18:22:40.331Z,30.90
2017-11-07T18:25:08.582Z,33.23
2017-11-07T18:27:36.191Z,31.03
2017-11-07T18:30:03.919Z,31.23
2017-11-07T18:32:31.829Z,30.10
2017-11-07T18:34:59.654Z,29.27
2017-11-07T18:37:27.284Z,32.13
2017-11-07T18:39:54.961Z,31.87
2017-11-07T18:42:22.559Z,30.50
2017-11-07T18:44:50.274Z,31.27
2017-11-07T18:47:17.854Z,35.67
2017-11-07T18:49:45.431Z,32.63
2017-11-07T18:52:13.121Z,28.90
2017-11-07T18:54:40.942Z,27.80
2017-11-07T18:57:08.463Z,32.50
2017-11-07T18:59:36.055Z,34.30
2017-11-07T19:02:03.810Z,36.20
2017-11-07T19:04:31.359Z,27.10
2017-11-07T19:06:59.081Z,34.33
2017-11-07T19:09:26.703Z,30.80
2017-11-07T19:11:54.218Z,32.47
2017-11-07T19:14:21.994Z,32.70
2017-11-07T19:16:49.694Z,32.33
2017-11-07T19:19:17.292Z,31.43
2017-11-07T19:21:44.855Z,30.47
2017-11-07T19:24:12.519Z,32.27
2017-11-07T19:26:40.562Z,31.63
2017-11-07T19:29:08.185Z,32.33
2017-11-07T19:31:35.833Z,30.30
2017-11-07T19:34:03.338Z,30.60
2017-11-07T19:36:31.091Z,34.57
2017-11-07T19:38:58.844Z,27.87
2017-11-07T19:41:26.384Z,31.90
2017-11-07T19:43:53.931Z,29.40
2017-11-07T19:46:21.747Z,29.97
2017-11-07T19:48:50.292Z,33.80
2017-11-07T19:51:17.866Z,28.60
2017-11-07T19:53:45.544Z,33.00
2017-11-07T19:56:13.206Z,36.33
2017-11-07T19:58:40.755Z,29.87
2017-11-07T20:01:08.516Z,32.63
2017-11-07T20:03:36.043Z,33.00
2017-11-07T20:06:03.576Z,33.03
2017-11-07T20:08:31.511Z,31.60
2017-11-07T20:10:59.035Z,34.83
2017-11-07T20:13:26.547Z,33.07
2017-11-07T20:15:54.422Z,34.73
2017-11-07T20:18:22.059Z,39.33
2017-11-07T20:20:49.787Z,34.50
2017-11-07T20:23:17.476Z,34.47
2017-11-07T20:25:45.116Z,35.03
2017-11-07T20:28:12.755Z,36.30
2017-11-07T20:30:40.691Z,37.37
2017-11-07T20:33:09.088Z,34.77
2017-11-07T20:35:36.692Z,38.37
2017-11-07T20:38:04.315Z,34.93
2017-11-07T20:40:31.911Z,35.30
2017-11-07T20:42:59.682Z,35.70
2017-11-07T20:45:27.248Z,38.97
2017-11-07T20:47:54.820Z,35.63
2017-11-07T20:50:22.322Z,38.77
2017-11-07T20:52:50.045Z,35.33
2017-11-07T20:55:18.807Z,37.50
2017-11-07T20:57:46.602Z,36.67
2017-11-07T21:00:14.886Z,36.67
2017-11-07T21:02:43.299Z,34.50
2017-11-07T21:05:10.873Z,39.47
2017-11-07T21:07:38.810Z,37.00
2017-11-07T21:10:06.674Z,39.70
2017-11-07T21:12:34.226Z,40.43
2017-11-07T21:15:02.588Z,37.07
2017-11-07T21:17:30.259Z,39.87
2017-11-07T21:19:57.803Z,36.63
2017-11-07T21:22:25.639Z,38.50
2017-11-07T21:24:53.179Z,40.63
2017-11-07T21:27:20.703Z,42.57
2017-11-07T21:29:48.373Z,40.27
2017-11-07T21:32:15.897Z,43.87
2017-11-07T21:34:46.145Z,42.70
2017-11-07T21:37:13.735Z,39.33
2017-11-07T21:39:42.003Z,40.27
2017-11-07T21:42:10.328Z,42.73
2017-11-07T21:44:38.005Z,42.40
2017-11-07T21:47:05.547Z,41.07
2017-11-07T21:49:33.063Z,40.57
2017-11-07T21:52:00.630Z,41.40
2017-11-07T21:54:28.247Z,43.83
2017-11-07T21:56:55.766Z,43.50
2017-11-07T21:59:23.475Z,45.87
2017-11-07T22:01:51.107Z,45.47
2017-11-07T22:04:18.656Z,41.30
2017-11-07T22:06:46.696Z,42.80
2017-11-07T22:09:14.983Z,44.20
2017-11-07T22:11:42.514Z,43.63
2017-11-07T22:14:10.112Z,43.80
2017-11-07T22:16:53.054Z,43.63
2017-11-07T22:19:20.608Z,44.33
2017-11-07T22:21:50.078Z,45.50
2017-11-07T22:24:18.355Z,46.90
2017-11-07T22:26:45.979Z,45.50
2017-11-07T22:29:13.511Z,43.57
2017-11-07T22:31:40.954Z,47.47
2017-11-07T22:34:08.380Z,50.17
2017-11-07T22:36:36.617Z,46.23
2017-11-07T22:39:04.503Z,46.10
2017-11-07T22:41:32.109Z,45.57
2017-11-07T22:43:59.619Z,48.40
2017-11-07T22:46:27.519Z,47.90
2017-11-07T22:48:55.485Z,47.60
2017-11-07T22:51:23.006Z,48.60
2017-11-07T22:53:50.562Z,48.90
2017-11-07T22:56:18.179Z,46.60
2017-11-07T22:58:45.731Z,46.97
2017-11-07T23:01:13.364Z,44.77
2017-11-07T23:03:41.065Z,46.70
2017-11-07T23:06:08.651Z,46.27
2017-11-07T23:08:36.225Z,45.67
2017-11-07T23:11:03.735Z,47.00
2017-11-07T23:13:31.240Z,45.60
2017-11-07T23:15:59.374Z,52.60
2017-11-07T23:18:26.901Z,47.10
2017-11-07T23:20:54.406Z,45.83
2017-11-07T23:23:22.034Z,48.53
2017-11-07T23:25:50.343Z,49.03
2017-11-07T23:28:17.866Z,47.87
2017-11-07T23:30:45.439Z,50.27
2017-11-07T23:33:13.750Z,42.10
2017-11-07T23:35:41.258Z,47.30
2017-11-07T23:38:09.019Z,42.30
2017-11-07T23:40:36.540Z,41.13
2017-11-07T23:43:04.110Z,45.30
2017-11-07T23:45:31.662Z,46.07
2017-11-07T23:47:59.172Z,40.50
2017-11-07T23:50:26.686Z,40.60
2017-11-07T23:52:54.239Z,43.60
2017-11-07T23:55:21.755Z,48.90
2017-11-07T23:57:49.271Z,43.27
